Time;durP1;ratioP1;P1;durP2;ratioP2;P2;SDS_P1;SDS_P2;PMS_P1;PMS_P2;Temp;Humidity;BMP_temperature;BMP_pressure;BME280_temperature;BME280_humidity;BME280_pressure;Samples;Min_cycle;Max_cycle;Signal;HPM_P1;HPM_P2
2022/08/19 00:00:27;;;;;;;;;;;;;;;18.15;100.00;-25577.91;5079023;28;19920;-79
2022/08/19 00:02:52;;;;;;;;;;;;;;;18.13;100.00;-25577.47;5077744;28;19977;-80
2022/08/19 00:05:19;;;;;;;;;;;;;;;18.13;100.00;-25577.47;5079675;28;20003;-79
2022/08/19 00:07:44;;;;;;;;;;;;;;;18.09;100.00;-25576.31;5071628;28;19920;-79
2022/08/19 00:10:11;;;;;;;;;;;;;;;18.12;100.00;-25577.19;5086556;28;20635;-79
2022/08/19 00:12:38;;;;;;;;;;;;;;;18.07;100.00;-25575.88;5063438;28;20371;-79
2022/08/19 00:15:11;;;;;;;;;;;;;;;18.02;100.00;-25574.28;5073632;28;19921;-84
2022/08/19 00:17:36;;;;;;;;;;;;;;;17.98;100.00;-25573.28;5057249;28;19994;-83
2022/08/19 00:20:02;;;;;;;;;;;;;;;17.96;100.00;-25572.56;5067817;28;20290;-83
2022/08/19 00:22:28;;;;;;;;;;;;;;;17.97;100.00;-25572.84;5068155;28;19920;-83
2022/08/19 00:24:53;;;;;;;;;;;;;;;17.89;100.00;-25570.66;5059158;28;20434;-81
2022/08/19 00:27:18;;;;;;;;;;;;;;;17.89;100.00;-25570.66;5076163;28;19922;-79
2022/08/19 00:29:44;;;;;;;;;;;;;;;17.91;100.00;-25571.41;5074381;28;19945;-79
2022/08/19 00:32:09;;;;;;;;;;;;;;;17.89;100.00;-25570.81;5088072;28;20447;-79
2022/08/19 00:34:39;;;;;;;;;;;;;;;17.86;100.00;-25569.94;5055816;28;19920;-84
2022/08/19 00:37:04;;;;;;;;;;;;;;;17.82;100.00;-25568.78;5089181;28;19921;-79
2022/08/19 00:39:29;;;;;;;;;;;;;;;17.81;100.00;-25568.50;5055873;28;19925;-79
2022/08/19 00:41:55;;;;;;;;;;;;;;;17.85;100.00;-25569.66;5055785;28;19963;-84
2022/08/19 00:44:23;;;;;;;;;;;;;;;17.83;100.00;-25569.06;5075364;28;19920;-84
2022/08/19 00:46:49;;;;;;;;;;;;;;;17.85;100.00;-25569.50;5075298;28;19927;-81
2022/08/19 00:49:16;;;;;;;;;;;;;;;17.84;100.00;-25569.38;5074105;28;19931;-82
2022/08/19 00:51:44;;;;;;;;;;;;;;;17.82;100.00;-25568.78;5075424;28;20387;-82
2022/08/19 00:54:09;;;;;;;;;;;;;;;17.76;100.00;-25567.19;5057939;28;19917;-84
2022/08/19 00:56:35;;;;;;;;;;;;;;;17.73;100.00;-25566.31;5093621;28;20432;-83
2022/08/19 00:59:01;;;;;;;;;;;;;;;17.69;100.00;-25565.16;5074746;28;19920;-83
2022/08/19 01:01:27;;;;;;;;;;;;;;;17.66;100.00;-25564.28;5075666;28;19926;-83
2022/08/19 01:03:52;;;;;;;;;;;;;;;17.63;100.00;-25563.41;5077367;28;20015;-82
2022/08/19 01:06:17;;;;;;;;;;;;;;;17.56;100.00;-25561.53;5056003;28;20345;-83
2022/08/19 01:08:42;;;;;;;;;;;;;;;17.56;100.00;-25561.53;5062778;28;19916;-83
2022/08/19 01:11:08;;;;;;;;;;;;;;;17.54;100.00;-25560.97;5070234;28;19920;-82
2022/08/19 01:13:35;;;;;;;;;;;;;;;17.54;100.00;-25560.97;5056502;28;19924;-79
2022/08/19 01:16:03;;;;;;;;;;;;;;;17.50;100.00;-25559.81;5071291;28;19931;-79
2022/08/19 01:18:29;;;;;;;;;;;;;;;17.48;100.00;-25559.22;5074739;28;20014;-80
2022/08/19 01:20:57;;;;;;;;;;;;;;;17.45;100.00;-25558.34;5068093;28;19916;-82
2022/08/19 01:23:42;;;;;;;;;;;;;;;17.47;100.00;-25558.94;5056730;28;19964;-81
2022/08/19 01:26:07;;;;;;;;;;;;;;;17.50;100.00;-25559.66;5071957;28;19920;-84
2022/08/19 01:28:33;;;;;;;;;;;;;;;17.47;100.00;-25558.94;5062361;28;19999;-83
2022/08/19 01:30:58;;;;;;;;;;;;;;;17.49;100.00;-25559.50;5056136;28;19917;-83
2022/08/19 01:33:24;;;;;;;;;;;;;;;17.53;100.00;-25560.53;5072900;28;19924;-83
2022/08/19 01:35:51;;;;;;;;;;;;;;;17.51;100.00;-25560.09;5069909;28;19916;-83
2022/08/19 01:38:21;;;;;;;;;;;;;;;17.46;100.00;-25558.63;5092355;28;20541;-80
2022/08/19 01:40:47;;;;;;;;;;;;;;;17.50;100.00;-25559.81;5090790;28;19923;-79
2022/08/19 01:43:19;;;;;;;;;;;;;;;17.50;100.00;-25559.66;5073499;28;19916;-78
2022/08/19 01:45:45;;;;;;;;;;;;;;;17.45;100.00;-25558.34;5074892;28;20214;-79
2022/08/19 01:48:11;;;;;;;;;;;;;;;17.42;100.00;-25557.47;5060444;28;19923;-79
2022/08/19 01:50:36;;;;;;;;;;;;;;;17.43;100.00;-25557.78;5086590;28;19920;-81
2022/08/19 01:53:05;;;;;;;;;;;;;;;17.40;100.00;-25557.06;5054943;28;20304;-79
2022/08/19 01:55:31;;;;;;;;;;;;;;;17.40;100.00;-25556.91;5069268;28;19924;-79
2022/08/19 01:57:57;;;;;;;;;;;;;;;17.38;100.00;-25556.31;5057097;28;19947;-79
2022/08/19 02:00:25;;;;;;;;;;;;;;;17.35;100.00;-25555.59;5066718;28;20269;-79
2022/08/19 02:02:50;;;;;;;;;;;;;;;17.32;100.00;-25554.59;5074207;28;20464;-80
2022/08/19 02:05:17;;;;;;;;;;;;;;;17.28;100.00;-25553.56;5077585;28;19920;-80
2022/08/19 02:07:44;;;;;;;;;;;;;;;17.31;100.00;-25554.28;5074012;28;20078;-79
2022/08/19 02:10:13;;;;;;;;;;;;;;;17.28;100.00;-25553.44;5078372;28;19931;-79
2022/08/19 02:12:40;;;;;;;;;;;;;;;17.22;100.00;-25551.97;5078201;28;19966;-80
2022/08/19 02:15:07;;;;;;;;;;;;;;;17.21;100.00;-25551.53;5078081;28;19916;-79
2022/08/19 02:17:33;;;;;;;;;;;;;;;17.19;100.00;-25551.09;5067486;28;20008;-80
2022/08/19 02:19:58;;;;;;;;;;;;;;;17.24;100.00;-25552.41;5058154;28;19974;-80
2022/08/19 02:22:25;;;;;;;;;;;;;;;17.22;100.00;-25551.97;5089796;28;19916;-84
2022/08/19 02:24:50;;;;;;;;;;;;;;;17.21;100.00;-25551.69;5077926;28;20434;-81
2022/08/19 02:27:16;;;;;;;;;;;;;;;17.22;100.00;-25551.97;5077369;28;19959;-83
2022/08/19 02:29:41;;;;;;;;;;;;;;;17.22;100.00;-25551.97;5070242;28;19931;-80
2022/08/19 02:32:07;;;;;;;;;;;;;;;17.24;100.00;-25552.41;5091011;28;19920;-80
2022/08/19 02:34:34;;;;;;;;;;;;;;;17.24;100.00;-25552.41;5058125;28;19920;-81
2022/08/19 02:36:59;;;;;;;;;;;;;;;17.25;100.00;-25552.69;5078930;28;19931;-80
2022/08/19 02:39:24;;;;;;;;;;;;;;;17.26;100.00;-25553.00;5078398;28;19920;-82
2022/08/19 02:41:50;;;;;;;;;;;;;;;17.26;100.00;-25553.00;5096170;28;20003;-79
2022/08/19 02:44:16;;;;;;;;;;;;;;;17.21;100.00;-25551.69;5077459;28;20391;-79
2022/08/19 02:46:44;;;;;;;;;;;;;;;17.21;100.00;-25551.69;5076810;28;19920;-79
2022/08/19 02:49:09;;;;;;;;;;;;;;;17.21;100.00;-25551.53;5062430;28;20311;-79
2022/08/19 02:51:38;;;;;;;;;;;;;;;17.21;100.00;-25551.69;5078073;28;19922;-79
2022/08/19 02:54:04;;;;;;;;;;;;;;;17.13;100.00;-25549.38;5077481;28;19963;-79
2022/08/19 02:56:30;;;;;;;;;;;;;;;17.12;100.00;-25549.06;5076624;28;19928;-80
2022/08/19 02:58:56;;;;;;;;;;;;;;;17.14;100.00;-25549.66;5075933;28;20388;-79
2022/08/19 03:01:21;;;;;;;;;;;;;;;17.13;100.00;-25549.38;5056123;28;19924;-79
2022/08/19 03:03:46;;;;;;;;;;;;;;;17.11;100.00;-25548.78;5089870;28;19971;-80
2022/08/19 03:06:13;;;;;;;;;;;;;;;17.11;100.00;-25548.78;5057014;28;19928;-80
2022/08/19 03:08:40;;;;;;;;;;;;;;;17.10;100.00;-25548.50;5058713;28;19921;-80
2022/08/19 03:11:05;;;;;;;;;;;;;;;17.11;100.00;-25548.63;5057344;28;19921;-80
2022/08/19 03:13:32;;;;;;;;;;;;;;;17.07;100.00;-25547.63;5067132;28;20334;-83
2022/08/19 03:15:58;;;;;;;;;;;;;;;17.09;100.00;-25548.22;5075032;28;19924;-80
2022/08/19 03:18:23;;;;;;;;;;;;;;;17.06;100.00;-25547.34;5069453;28;19969;-83
2022/08/19 03:20:50;;;;;;;;;;;;;;;17.05;100.00;-25547.03;5058676;28;20537;-83
2022/08/19 03:23:15;;;;;;;;;;;;;;;17.04;100.00;-25546.91;5089277;28;19916;-80
2022/08/19 03:25:42;;;;;;;;;;;;;;;17.04;100.00;-25546.75;5059471;28;19927;-83
2022/08/19 03:28:09;;;;;;;;;;;;;;;17.05;100.00;-25547.19;5076337;28;20284;-83
2022/08/19 03:30:34;;;;;;;;;;;;;;;17.05;100.00;-25547.03;5062043;28;19966;-79
2022/08/19 03:33:18;;;;;;;;;;;;;;;17.01;100.00;-25546.03;5056913;28;19924;-84
2022/08/19 03:35:44;;;;;;;;;;;;;;;17.00;100.00;-25545.59;5090037;28;19948;-83
2022/08/19 03:38:10;;;;;;;;;;;;;;;16.96;100.00;-25544.56;5084404;28;19924;-83
2022/08/19 03:40:36;;;;;;;;;;;;;;;16.99;100.00;-25545.31;5076690;28;19916;-84
2022/08/19 03:43:03;;;;;;;;;;;;;;;16.97;100.00;-25544.72;5076660;28;20371;-82
2022/08/19 03:45:28;;;;;;;;;;;;;;;16.96;97.87;-25544.44;5059360;28;19916;-82
2022/08/19 03:47:54;;;;;;;;;;;;;;;16.95;95.17;-25544.16;5056633;28;19923;-81
2022/08/19 03:50:19;;;;;;;;;;;;;;;16.96;93.55;-25544.44;5056914;28;20391;-83
2022/08/19 03:52:50;;;;;;;;;;;;;;;16.96;90.02;-25544.44;5056842;28;19959;-84
2022/08/19 03:55:15;;;;;;;;;;;;;;;16.96;88.55;-25544.44;5056556;28;20004;-84
2022/08/19 03:57:41;;;;;;;;;;;;;;;16.98;88.03;-25545.00;5108630;28;20015;-82
2022/08/19 04:00:07;;;;;;;;;;;;;;;16.96;87.30;-25544.44;5076840;28;19923;-85
2022/08/19 04:02:42;;;;;;;;;;;;;;;16.98;86.07;-25545.00;5094602;28;19916;-86
2022/08/19 04:05:08;;;;;;;;;;;;;;;16.97;85.10;-25544.72;5110806;28;19920;-84
2022/08/19 04:07:33;;;;;;;;;;;;;;;16.98;84.09;-25545.00;5078122;28;20332;-86
2022/08/19 04:10:00;;;;;;;;;;;;;;;17.00;81.74;-25545.59;5093157;28;19920;-84
2022/08/19 04:12:26;;;;;;;;;;;;;;;17.04;79.78;-25546.75;5073376;28;19927;-82
2022/08/19 04:14:52;;;;;;;;;;;;;;;17.03;78.83;-25546.47;5075827;28;19920;-80
2022/08/19 04:17:17;;;;;;;;;;;;;;;16.99;78.13;-25545.31;5075727;28;19927;-79
2022/08/19 04:19:42;;;;;;;;;;;;;;;17.01;77.01;-25545.88;5075399;28;20284;-86
2022/08/19 04:22:08;;;;;;;;;;;;;;;16.99;75.88;-25545.31;5056982;28;20086;-79
2022/08/19 04:24:35;;;;;;;;;;;;;;;16.98;74.84;-25545.00;5073496;28;19935;-80
2022/08/19 04:27:01;;;;;;;;;;;;;;;16.98;74.13;-25545.00;5089639;28;20011;-78
2022/08/19 04:29:27;;;;;;;;;;;;;;;16.97;73.68;-25544.88;5057091;28;19921;-80
2022/08/19 04:31:53;;;;;;;;;;;;;;;16.95;73.43;-25544.28;5064619;28;19980;-78
2022/08/19 04:34:22;;;;;;;;;;;;;;;16.97;73.02;-25544.88;5058909;28;19920;-78
2022/08/19 04:36:47;;;;;;;;;;;;;;;16.96;72.63;-25544.44;5063675;28;19927;-79
2022/08/19 04:39:16;;;;;;;;;;;;;;;16.96;72.30;-25544.56;5075113;28;19920;-79
2022/08/19 04:44:34;;;;;;;;;;;;;;;17.01;71.97;-25546.03;5073830;28;20456;-78
2022/08/19 04:47:00;;;;;;;;;;;;;;;17.10;71.76;-25548.34;5055255;28;19943;-82
2022/08/19 04:49:25;;;;;;;;;;;;;;;17.16;71.75;-25550.22;5059460;28;20376;-78
2022/08/19 04:51:54;;;;;;;;;;;;;;;17.26;71.90;-25553.00;5056815;28;19916;-81
2022/08/19 04:54:22;;;;;;;;;;;;;;;17.29;72.26;-25553.72;5060194;28;20391;-80
2022/08/19 04:56:49;;;;;;;;;;;;;;;17.34;72.78;-25555.16;5068606;28;20592;-79
2022/08/19 04:59:15;;;;;;;;;;;;;;;17.40;73.46;-25556.91;5064374;28;19920;-82
2022/08/19 05:01:42;;;;;;;;;;;;;;;17.46;74.31;-25558.63;5067532;28;19960;-78
2022/08/19 05:04:07;;;;;;;;;;;;;;;17.52;75.74;-25560.38;5061684;28;19921;-80
2022/08/19 05:06:34;;;;;;;;;;;;;;;17.53;77.59;-25560.66;5061692;28;19920;-80
2022/08/19 05:09:00;;;;;;;;;;;;;;;17.55;79.70;-25561.25;5063630;28;19965;-82
2022/08/19 05:11:28;;;;;;;;;;;;;;;17.67;82.33;-25564.44;5099966;28;19924;-81
2022/08/19 05:13:56;;;;;;;;;;;;;;;17.72;85.16;-25566.03;5074688;28;19927;-80
2022/08/19 05:16:22;;;;;;;;;;;;;;;17.76;86.94;-25567.19;5086351;28;19920;-80
2022/08/19 05:24:19;;;;;;;;;;;;;;;17.90;94.40;-25571.09;5086861;28;19974;-81
2022/08/19 05:26:46;;;;;;;;;;;;;;;18.01;96.90;-25574.00;5074567;28;19920;-79
2022/08/19 05:29:12;;;;;;;;;;;;;;;18.03;100.00;-25574.72;5056704;28;20361;-81
2022/08/19 05:31:38;;;;;;;;;;;;;;;18.05;100.00;-25575.16;5064218;28;20269;-82
2022/08/19 05:34:05;;;;;;;;;;;;;;;18.11;100.00;-25576.91;5074679;28;19960;-77
2022/08/19 05:36:34;;;;;;;;;;;;;;;18.15;100.00;-25578.06;5073475;28;19990;-79
2022/08/19 05:39:00;;;;;;;;;;;;;;;18.24;100.00;-25580.50;5076233;28;19968;-82
2022/08/19 05:41:29;;;;;;;;;;;;;;;18.30;100.00;-25582.41;5069402;28;20011;-82
2022/08/19 05:43:58;;;;;;;;;;;;;;;18.34;100.00;-25583.41;5081558;28;19973;-78
2022/08/19 05:46:26;;;;;;;;;;;;;;;18.26;100.00;-25581.22;5072380;28;19920;-80
2022/08/19 05:48:51;;;;;;;;;;;;;;;18.36;100.00;-25583.84;5038629;28;19917;-79
2022/08/19 05:51:17;;;;;;;;;;;;;;;18.41;100.00;-25585.28;5050176;28;20403;-81
2022/08/19 05:53:44;;;;;;;;;;;;;;;18.51;100.00;-25588.19;5066007;28;19927;-79
2022/08/19 05:56:11;;;;;;;;;;;;;;;18.72;100.00;-25594.09;5068893;28;19931;-79
2022/08/19 05:58:37;;;;;;;;;;;;;;;19.29;100.00;-25610.16;5058487;28;20380;-79
2022/08/19 06:01:05;;;;;;;;;;;;;;;19.99;100.00;-25629.63;5070497;28;19920;-78
2022/08/19 06:03:34;;;;;;;;;;;;;;;20.41;100.00;-25641.47;5075714;28;19928;-79
2022/08/19 06:05:59;;;;;;;;;;;;;;;20.61;100.00;-25647.06;5059392;28;19986;-78
2022/08/19 06:08:26;;;;;;;;;;;;;;;20.56;100.00;-25645.63;5079979;28;20304;-79
2022/08/19 06:10:52;;;;;;;;;;;;;;;20.62;100.00;-25647.38;5058756;28;19920;-80
2022/08/19 06:13:19;;;;;;;;;;;;;;;20.70;100.00;-25649.69;5076501;28;19920;-83
2022/08/19 06:15:46;;;;;;;;;;;;;;;20.76;100.00;-25651.25;5072037;28;19920;-82
2022/08/19 06:18:12;;;;;;;;;;;;;;;20.86;100.00;-25654.13;5057692;28;19921;-79
2022/08/19 06:20:41;;;;;;;;;;;;;;;20.61;100.00;-25647.06;5062135;28;20073;-77
2022/08/19 06:23:07;;;;;;;;;;;;;;;20.50;100.00;-25643.91;5063801;28;19927;-82
2022/08/19 06:25:32;;;;;;;;;;;;;;;20.48;100.00;-25643.31;5077202;28;19917;-82
2022/08/19 06:27:58;;;;;;;;;;;;;;;20.46;100.00;-25642.91;5065923;28;19924;-82
2022/08/19 06:30:23;;;;;;;;;;;;;;;20.34;100.00;-25639.59;5078025;28;19916;-82
2022/08/19 06:32:49;;;;;;;;;;;;;;;20.75;100.00;-25651.13;5071920;28;19920;-81
2022/08/19 06:35:14;;;;;;;;;;;;;;;20.76;100.00;-25651.41;5078332;28;19920;-82
2022/08/19 06:37:40;;;;;;;;;;;;;;;20.90;100.00;-25655.16;5078061;28;19927;-80
2022/08/19 06:40:08;;;;;;;;;;;;;;;20.92;100.00;-25655.72;5096090;28;19977;-82
2022/08/19 06:42:34;;;;;;;;;;;;;;;20.96;100.00;-25657.03;5077063;28;19916;-79
2022/08/19 06:45:02;;;;;;;;;;;;;;;21.16;100.00;-25662.47;5075892;28;20248;-80
2022/08/19 06:47:28;;;;;;;;;;;;;;;21.79;100.00;-25680.03;5075128;28;19920;-78
2022/08/19 06:49:59;;;;;;;;;;;;;;;21.85;100.00;-25681.91;5056822;28;19916;-79
2022/08/19 06:52:24;;;;;;;;;;;;;;;21.78;100.00;-21689.75;5056688;28;19942;-79
2022/08/19 06:54:49;;;;;;;;;;;;;;;21.76;100.00;-20359.03;5056384;28;19920;-79
2022/08/19 06:57:16;;;;;;;;;;;;;;;21.62;100.00;-20023.72;5074579;28;19916;-78
2022/08/19 06:59:41;;;;;;;;;;;;;;;21.34;100.00;-19685.88;5056046;28;19916;-79
2022/08/19 07:02:07;;;;;;;;;;;;;;;21.57;100.00;-22017.47;5090010;28;19939;-79
2022/08/19 07:04:33;;;;;;;;;;;;;;;22.01;100.00;-22360.00;5056410;28;20308;-78
2022/08/19 07:07:07;;;;;;;;;;;;;;;22.28;100.00;-20036.31;5089616;28;19924;-77
2022/08/19 07:09:40;;;;;;;;;;;;;;;22.61;100.00;-17043.47;5055918;28;19923;-81
2022/08/19 07:12:06;;;;;;;;;;;;;;;22.52;100.00;-11705.50;5056559;28;19951;-78
2022/08/19 07:14:39;;;;;;;;;;;;;;;22.38;100.00;-9034.09;5054237;28;19917;-80
2022/08/19 07:17:06;;;;;;;;;;;;;;;21.88;100.00;-9366.81;5055300;28;19921;-78
2022/08/19 07:19:31;;;;;;;;;;;;;;;22.58;100.00;-10370.41;5056539;28;19920;-79
2022/08/19 07:22:02;;;;;;;;;;;;;;;23.84;100.00;-7028.00;5055647;28;20427;-79
2022/08/19 07:24:28;;;;;;;;;;;;;;;24.49;100.00;8760.41;5065944;28;20002;-80
2022/08/19 07:26:56;;;;;;;;;;;;;;;24.93;100.00;29033.97;5076258;28;20355;-81
2022/08/19 07:29:22;;;;;;;;;;;;;;;25.31;100.00;62056.25;5076283;28;19973;-79
2022/08/19 07:31:48;;;;;;;;;;;;;;;24.51;100.00;81121.41;5076193;28;19955;-78
2022/08/19 07:34:15;;;;;;;;;;;;;;;24.47;100.00;74949.66;5075729;28;19920;-76
2022/08/19 07:36:42;;;;;;;;;;;;;;;24.22;100.00;67054.97;5074592;28;19923;-76
2022/08/19 07:39:09;;;;;;;;;;;;;;;24.32;100.00;61606.91;5074984;28;19920;-78
2022/08/19 07:41:36;;;;;;;;;;;;;;;24.33;100.00;55132.88;5074914;28;19927;-79
2022/08/19 07:44:03;;;;;;;;;;;;;;;24.36;100.00;61270.34;5055789;28;19924;-76
2022/08/19 07:46:30;;;;;;;;;;;;;;;24.07;100.00;62601.66;5055347;28;20030;-76
2022/08/19 07:48:56;;;;;;;;;;;;;;;23.98;100.00;54417.56;5055341;28;19917;-78
2022/08/19 07:51:21;;;;;;;;;;;;;;;23.55;100.00;48598.25;5055827;28;20288;-77
2022/08/19 07:53:50;;;;;;;;;;;;;;;23.11;100.00;33996.25;5070872;28;20364;-79
2022/08/19 07:56:16;;;;;;;;;;;;;;;22.59;100.00;24179.13;5075972;28;19989;-77
2022/08/19 07:58:42;;;;;;;;;;;;;;;22.47;100.00;9378.97;5075726;28;19974;-80
2022/08/19 08:01:09;;;;;;;;;;;;;;;22.10;100.00;1662.69;5074826;28;19916;-81
2022/08/19 08:09:22;;;;;;;;;;;;;;;21.61;100.00;-14698.50;5090945;28;19969;-78
2022/08/19 08:11:50;;;;;;;;;;;;;;;21.54;100.00;-17360.91;5081655;28;19920;-79
2022/08/19 08:14:17;;;;;;;;;;;;;;;21.61;100.00;-19358.22;5066352;28;19916;-75
2022/08/19 08:16:45;;;;;;;;;;;;;;;21.76;100.00;-20691.66;5054825;28;19933;-81
2022/08/19 08:19:14;;;;;;;;;;;;;;;21.65;100.00;-21354.50;5055488;28;19971;-81
2022/08/19 08:21:40;;;;;;;;;;;;;;;21.83;100.00;-21690.88;5055253;28;19920;-79
2022/08/19 08:24:14;;;;;;;;;;;;;;;21.96;100.00;-22026.16;5066887;28;19924;-82
2022/08/19 08:26:39;;;;;;;;;;;;;;;22.01;100.00;-21694.69;5070045;28;20026;-80
2022/08/19 08:29:07;;;;;;;;;;;;;;;22.15;100.00;-22030.50;5075253;28;19959;-78
2022/08/19 08:31:33;;;;;;;;;;;;;;;22.32;100.00;-20037.09;5065283;28;19958;-81
2022/08/19 08:34:00;;;;;;;;;;;;;;;22.48;100.00;-18041.34;5058637;28;19920;-77
2022/08/19 08:36:25;;;;;;;;;;;;;;;22.81;100.00;-15045.09;5063845;28;19920;-82
2022/08/19 08:38:51;;;;;;;;;;;;;;;23.07;100.00;-10706.47;5056230;28;19939;-82
2022/08/19 08:41:40;;;;;;;;;;;;;;;23.02;100.00;-7697.94;5075152;28;19941;-78
2022/08/19 08:44:11;;;;;;;;;;;;;;;22.77;100.00;-6026.34;5074525;28;19927;-79
2022/08/19 08:46:39;;;;;;;;;;;;;;;23.01;100.00;-5021.94;5072678;28;19916;-80
2022/08/19 08:49:23;;;;;;;;;;;;;;;23.13;100.00;-1673.13;5073299;28;19916;-76
2022/08/19 08:52:11;;;;;;;;;;;;;;;23.26;100.00;-1671.88;5073182;28;19923;-80
2022/08/19 08:54:42;;;;;;;;;;;;;;;24.20;100.00;2701.69;5070165;28;19916;-80
2022/08/19 08:57:11;;;;;;;;;;;;;;;24.78;100.00;17870.91;5073517;28;19982;-80
2022/08/19 08:59:38;;;;;;;;;;;;;;;24.37;100.00;35095.97;5073237;28;20393;-80
2022/08/19 09:02:03;;;;;;;;;;;;;;;24.49;100.00;39850.75;5073349;28;19917;-81
2022/08/19 09:04:29;;;;;;;;;;;;;;;24.16;100.00;42540.25;5073496;28;19927;-81
2022/08/19 09:07:10;;;;;;;;;;;;;;;24.67;100.00;40882.56;5073754;28;19938;-77
2022/08/19 09:09:41;;;;;;;;;;;;;;;25.38;100.00;63431.13;5073706;28;20292;-82
2022/08/19 09:12:10;;;;;;;;;;;;;;;25.85;100.00;90596.81;5073973;28;20432;-81
2022/08/19 09:14:36;;;;;;;;;;;;;;;25.33;100.00;115019.50;5072635;28;20233;-79
2022/08/19 09:17:07;;;;;;;;;;;;;;;25.77;100.00;121693.81;5074404;28;19916;-78
2022/08/19 09:19:33;;;;;;;;;;;;;;;25.78;100.00;149195.97;5091021;28;19916;-79
2022/08/19 09:22:00;;;;;;;;;;;;;;;26.24;100.00;149310.50;5072134;28;19916;-77
2022/08/19 09:24:25;;;;;;;;;;;;;;;26.64;100.00;149409.50;5072777;28;19916;-80
2022/08/19 09:26:50;;;;;;;;;;;;;;;26.38;100.00;149345.16;5072708;28;19916;-82
2022/08/19 09:29:16;;;;;;;;;;;;;;;26.60;100.00;149399.19;5072218;28;19962;-81
2022/08/19 09:31:41;;;;;;;;;;;;;;;26.50;100.00;149376.03;5073500;28;19975;-79
2022/08/19 09:34:06;;;;;;;;;;;;;;;26.49;100.00;149373.50;5071987;28;19916;-80
2022/08/19 09:36:33;;;;;;;;;;;;;;;26.60;100.00;149400.50;5072330;28;19958;-80
2022/08/19 09:38:59;;;;;;;;;;;;;;;26.59;100.00;149396.66;5072802;28;19916;-79
2022/08/19 09:41:25;;;;;;;;;;;;;;;26.40;100.00;149349.03;5072495;28;20325;-78
2022/08/19 09:43:53;;;;;;;;;;;;;;;26.33;100.00;149332.31;5072221;28;19916;-79
2022/08/19 09:46:20;;;;;;;;;;;;;;;25.74;100.00;149185.69;5073805;28;19917;-79
2022/08/19 09:48:48;;;;;;;;;;;;;;;25.14;100.00;149033.97;5072298;28;20438;-79
2022/08/19 09:51:15;;;;;;;;;;;;;;;24.87;100.00;148967.16;5072253;28;20215;-79
2022/08/19 09:53:41;;;;;;;;;;;;;;;24.20;100.00;148801.38;5072805;28;19994;-79
2022/08/19 09:56:06;;;;;;;;;;;;;;;23.68;100.00;148670.38;5072877;28;19966;-77
2022/08/19 09:58:32;;;;;;;;;;;;;;;23.42;100.00;148606.19;5072474;28;20027;-77
2022/08/19 10:00:58;;;;;;;;;;;;;;;23.39;100.00;148597.19;5090825;28;20003;-77
2022/08/19 10:03:24;;;;;;;;;;;;;;;23.26;100.00;135716.66;5071588;28;19928;-79
2022/08/19 10:05:50;;;;;;;;;;;;;;;23.09;100.00;102873.38;5073056;28;19916;-81
2022/08/19 10:08:19;;;;;;;;;;;;;;;22.94;100.00;69972.38;5086818;28;20018;-77
2022/08/19 10:10:45;;;;;;;;;;;;;;;22.90;100.00;37701.41;5056136;28;19927;-77
2022/08/19 10:13:12;;;;;;;;;;;;;;;22.86;100.00;24192.34;5055723;28;19975;-77
2022/08/19 10:15:40;;;;;;;;;;;;;;;22.94;100.00;19143.25;5034467;28;20419;-78
2022/08/19 10:18:05;;;;;;;;;;;;;;;23.20;100.00;16796.97;5047246;28;19988;-78
2022/08/19 10:20:32;;;;;;;;;;;;;;;23.42;100.00;17479.25;5068783;28;19951;-79
2022/08/19 10:22:59;;;;;;;;;;;;;;;23.64;100.00;24232.00;5075100;28;19916;-78
2022/08/19 10:25:25;;;;;;;;;;;;;;;23.83;100.00;39801.31;5066040;28;19944;-79
2022/08/19 10:27:51;;;;;;;;;;;;;;;23.86;100.00;62919.66;5057508;28;20406;-78
2022/08/19 10:30:16;;;;;;;;;;;;;;;24.09;100.00;79006.97;5074261;28;19917;-78
2022/08/19 10:32:41;;;;;;;;;;;;;;;24.07;100.00;91350.22;5056313;28;19927;-79
2022/08/19 10:35:08;;;;;;;;;;;;;;;23.82;100.00;90624.81;5056972;28;19940;-78
2022/08/19 10:37:34;;;;;;;;;;;;;;;23.86;100.00;82400.41;5067850;28;20003;-79
2022/08/19 10:39:59;;;;;;;;;;;;;;;23.95;100.00;82412.91;5060822;28;20031;-79
2022/08/19 10:42:30;;;;;;;;;;;;;;;23.92;100.00;97513.41;5072051;28;19924;-79
2022/08/19 10:44:56;;;;;;;;;;;;;;;24.15;100.00;105127.25;5076587;28;19916;-78
2022/08/19 10:47:21;;;;;;;;;;;;;;;24.42;100.00;126264.59;5077051;28;19920;-80
2022/08/19 10:52:37;;;;;;;;;;;;;;;25.56;100.00;149140.72;5075461;28;19923;-81
2022/08/19 10:57:47;;;;;;;;;;;;;;;26.00;100.00;149248.75;5075985;28;19923;-81
2022/08/19 11:00:13;;;;;;;;;;;;;;;25.82;100.00;149204.97;5059019;28;19920;-81
2022/08/19 11:02:38;;;;;;;;;;;;;;;25.56;100.00;149139.44;5075471;28;19922;-78
2022/08/19 11:05:05;;;;;;;;;;;;;;;25.30;100.00;149075.16;5080949;28;19920;-79
2022/08/19 11:07:30;;;;;;;;;;;;;;;25.37;100.00;149093.16;5067572;28;20427;-82
2022/08/19 11:09:56;;;;;;;;;;;;;;;24.91;100.00;148978.72;5055514;28;19924;-77
2022/08/19 11:12:23;;;;;;;;;;;;;;;24.52;100.00;148879.78;5090683;28;19921;-80
2022/08/19 11:14:50;;;;;;;;;;;;;;;24.27;100.00;148818.09;5056992;28;19916;-78
2022/08/19 11:17:15;;;;;;;;;;;;;;;24.17;100.00;148792.41;5090375;28;19912;-79
2022/08/19 11:19:42;;;;;;;;;;;;;;;23.95;100.00;148738.47;5056135;28;19916;-79
2022/08/19 11:22:09;;;;;;;;;;;;;;;23.66;100.00;148666.53;5056098;28;19978;-81
2022/08/19 11:24:35;;;;;;;;;;;;;;;23.64;100.00;148660.09;5056319;28;19917;-81
2022/08/19 11:27:04;;;;;;;;;;;;;;;23.61;100.00;148653.66;5056175;28;20277;-82
2022/08/19 11:29:30;;;;;;;;;;;;;;;23.46;100.00;148616.47;5055857;28;19947;-78
2022/08/19 11:31:55;;;;;;;;;;;;;;;23.54;100.00;148635.72;5055749;28;20018;-81
2022/08/19 11:34:23;;;;;;;;;;;;;;;23.84;100.00;148711.50;5055661;28;20494;-81
2022/08/19 11:36:50;;;;;;;;;;;;;;;23.97;100.00;148742.31;5055819;28;20304;-79
2022/08/19 11:39:17;;;;;;;;;;;;;;;24.06;100.00;148764.16;5056642;28;19917;-80
2022/08/19 11:41:42;;;;;;;;;;;;;;;24.31;100.00;148828.34;5074075;28;19927;-80
2022/08/19 11:44:10;;;;;;;;;;;;;;;24.55;100.00;148887.47;5094526;28;20018;-81
2022/08/19 11:46:36;;;;;;;;;;;;;;;24.75;100.00;148936.31;5071938;28;19920;-81
2022/08/19 11:49:03;;;;;;;;;;;;;;;24.81;100.00;148951.72;5081360;28;20312;-81
2022/08/19 11:51:28;;;;;;;;;;;;;;;24.71;100.00;148927.34;5056588;28;19924;-79
2022/08/19 11:53:55;;;;;;;;;;;;;;;24.71;100.00;148927.34;5056050;28;20276;-80
2022/08/19 11:56:21;;;;;;;;;;;;;;;24.64;100.00;148910.66;5054135;28;19920;-78
2022/08/19 11:58:47;;;;;;;;;;;;;;;24.33;100.00;148832.19;5074859;28;19917;-79
2022/08/19 12:01:17;;;;;;;;;;;;;;;24.30;100.00;148824.50;5075421;28;20413;-77
2022/08/19 12:03:43;;;;;;;;;;;;;;;24.32;100.00;148829.66;5074295;28;19970;-79
2022/08/19 12:06:10;;;;;;;;;;;;;;;24.34;100.00;148834.78;5074559;28;19967;-78
2022/08/19 12:08:35;;;;;;;;;;;;;;;24.31;100.00;148828.34;5056125;28;19966;-77
2022/08/19 12:11:01;;;;;;;;;;;;;;;24.26;100.00;148815.53;5054447;28;20337;-77
2022/08/19 12:13:31;;;;;;;;;;;;;;;24.76;100.00;148938.91;5058158;28;19983;-77
2022/08/19 12:15:56;;;;;;;;;;;;;;;24.72;100.00;148931.19;5061935;28;19965;-76
2022/08/19 12:18:22;;;;;;;;;;;;;;;24.89;100.00;148972.28;5053921;28;20011;-76
2022/08/19 12:20:50;;;;;;;;;;;;;;;24.78;100.00;148944.03;5054416;28;19921;-76
2022/08/19 12:23:16;;;;;;;;;;;;;;;25.07;100.00;149018.53;5071597;28;20315;-77
2022/08/19 12:25:51;;;;;;;;;;;;;;;24.69;100.00;148923.47;5053969;28;19917;-77
2022/08/19 12:28:17;;;;;;;;;;;;;;;24.84;100.00;148960.72;5058427;28;19929;-80
2022/08/19 12:30:42;;;;;;;;;;;;;;;24.69;100.00;148923.47;5062578;28;19916;-77
2022/08/19 12:33:08;;;;;;;;;;;;;;;24.67;100.00;148918.34;5053992;28;19921;-78
2022/08/19 12:35:33;;;;;;;;;;;;;;;24.68;100.00;148920.91;5074673;28;19912;-81
2022/08/19 12:38:01;;;;;;;;;;;;;;;24.56;100.00;148890.00;5107815;28;19977;-76
2022/08/19 12:40:26;;;;;;;;;;;;;;;24.31;100.00;148827.09;5108534;28;19916;-78
2022/08/19 12:42:53;;;;;;;;;;;;;;;24.15;100.00;148788.56;5074561;28;19916;-81
2022/08/19 12:45:21;;;;;;;;;;;;;;;23.94;100.00;148734.59;5073571;28;20159;-77
2022/08/19 12:47:47;;;;;;;;;;;;;;;23.71;100.00;133466.28;5074197;28;19920;-79